Pinedale, California
Current Conditions -  °F | °C
As of 12:53 PM on Thursday 27 Nov 2014 (Local Time) from KFAT Reporting Station
Haze Haze  
Wind Chill: 68°   Ceiling: Unl
Heat Index: 68°   Visibility: 4mi
Dew Point: 46°   Wind: 3mph
Humidity: 45%   Direction: NA
Pressure: 30.12"   Gusts: NA
Location:  36.8419°N, 119.795°W
Report Text: KFAT 272053Z VRB03KT 4SM HZ FEW150 SCT250 20/08 A3012 RMK AO2 SLP199 T02000078 58026
Loading
Personal Weather Stations






























Interactive Weather Map New forecast layout! Learn more

10-Day Weather Forecast

Advertisements
Track Severe Weather on mobile